Time;durP1;ratioP1;P1;durP2;ratioP2;P2;SDS_P1;SDS_P2;PMS_P1;PMS_P2;Temp;Humidity;BMP_temperature;BMP_pressure;BME280_temperature;BME280_humidity;BME280_pressure;Samples;Min_cycle;Max_cycle;Signal;HPM_P1;HPM_P2
2022/08/23 00:00:27;;;;;;;;;0.00;0.00;;;;;27.90;48.04;9757.16;4994131;28;45496;-76
2022/08/23 00:02:53;;;;;;;;;0.00;0.00;;;;;27.92;47.93;9072.28;4994185;28;45541;-76
2022/08/23 00:05:19;;;;;;;;;0.67;0.67;;;;;27.89;47.96;9071.59;4993696;28;45417;-76
2022/08/23 00:07:44;;;;;;;;;0.00;0.00;;;;;27.92;48.30;8386.91;4993942;28;45484;-76
2022/08/23 00:10:12;;;;;;;;;2.00;1.00;;;;;27.96;48.41;8045.09;4993978;28;46201;-76
2022/08/23 00:12:38;;;;;;;;;1.00;1.00;;;;;27.94;48.17;8044.72;4993656;28;45438;-76
2022/08/23 00:15:06;;;;;;;;;0.75;0.75;;;;;27.94;48.17;8044.72;4993700;28;47470;-76
2022/08/23 00:17:32;;;;;;;;;0.33;0.33;;;;;28.01;48.11;8388.56;4993715;28;45663;-76
2022/08/23 00:19:57;;;;;;;;;1.00;1.00;;;;;27.99;47.93;8045.66;4975904;28;45481;-76
2022/08/23 00:22:22;;;;;;;;;1.00;1.00;;;;;28.03;48.12;6676.00;4993630;28;45383;-76
2022/08/23 00:24:48;;;;;;;;;0.00;0.00;;;;;28.03;48.60;7018.63;4993301;28;45897;-76
2022/08/23 00:27:16;;;;;;;;;1.00;1.00;;;;;27.94;48.28;6674.59;4993442;28;45544;-76
2022/08/23 00:29:46;;;;;;;;;0.67;0.67;;;;;28.02;48.43;5990.97;4993674;28;45446;-76
2022/08/23 00:32:15;;;;;;;;;0.00;0.00;;;;;28.03;48.58;5648.69;4993875;28;45430;-76
2022/08/23 00:34:40;;;;;;;;;1.00;1.00;;;;;27.97;48.82;5305.41;4993149;28;46617;-76
2022/08/23 00:37:08;;;;;;;;;3.00;1.00;;;;;27.94;48.86;4278.16;4993269;28;45568;-76
2022/08/23 00:39:34;;;;;;;;;0.33;0.33;;;;;27.99;48.52;3936.47;4993382;28;45583;-77
2022/08/23 00:48:00;;;;;;;;;1.00;1.00;;;;;27.82;48.74;2908.06;4996253;28;45436;-76
2022/08/23 00:50:42;;;;;;;;;0.00;0.00;;;;;27.80;49.27;1881.88;4996327;28;45457;-76
2022/08/23 00:53:16;;;;;;;;;1.00;1.00;;;;;27.75;49.18;1197.66;4996669;28;45539;-77
2022/08/23 00:55:45;;;;;;;;;0.00;0.00;;;;;27.78;49.34;855.97;4995828;28;45492;-77
2022/08/23 00:58:15;;;;;;;;;1.00;1.00;;;;;27.73;49.54;-853.19;4996049;28;45327;-76
2022/08/23 01:00:40;;;;;;;;;0.67;0.67;;;;;27.63;49.38;-512.00;4996002;28;45393;-76
2022/08/23 01:03:08;;;;;;;;;2.00;1.00;;;;;27.71;49.22;-511.56;4996419;28;45457;-76
2022/08/23 01:05:46;;;;;;;;;1.33;1.33;;;;;27.68;49.44;-1195.03;4996007;28;46342;-77
2022/08/23 01:08:11;;;;;;;;;1.00;1.00;;;;;27.59;50.10;-2902.91;4996176;28;45308;-76
2022/08/23 01:10:47;;;;;;;;;0.25;0.25;;;;;27.47;50.37;-2903.03;4995901;28;45285;-76
2022/08/23 01:13:17;;;;;;;;;0.00;0.00;;;;;27.53;50.04;-3585.69;4996245;28;45440;-76
2022/08/23 01:15:49;;;;;;;;;1.00;1.00;;;;;27.55;49.95;-3927.03;4995958;28;45494;-76
2022/08/23 01:18:18;;;;;;;;;1.00;1.00;;;;;27.47;50.50;-4268.25;4995808;28;45539;-76
2022/08/23 01:21:12;;;;;;;;;0.25;0.25;;;;;27.52;50.31;-3927.00;4996227;28;45552;-76
2022/08/23 01:23:52;;;;;;;;;1.67;1.00;;;;;27.53;50.02;-4268.31;4995718;28;45465;-76
2022/08/23 01:26:20;;;;;;;;;1.00;1.00;;;;;27.52;50.61;-5633.13;4995315;28;46594;-76
2022/08/23 01:28:46;;;;;;;;;2.00;2.00;;;;;27.52;50.49;-5974.25;4995563;28;45506;-77
2022/08/23 01:31:12;;;;;;;;;0.67;0.67;;;;;27.54;50.47;-6315.44;4995964;28;45654;-76
2022/08/23 01:33:40;;;;;;;;;1.67;1.00;;;;;27.56;50.56;-6315.53;4996436;28;45450;-76
2022/08/23 01:36:11;;;;;;;;;1.50;1.50;;;;;27.51;50.38;-6997.41;4995575;28;46193;-76
2022/08/23 01:38:37;;;;;;;;;1.00;1.00;;;;;27.45;50.97;-7338.09;4995495;28;45457;-76
2022/08/23 01:41:03;;;;;;;;;0.50;0.50;;;;;27.53;50.70;-7338.53;4978083;28;45536;-76
2022/08/23 01:43:28;;;;;;;;;0.50;0.50;;;;;27.52;50.80;-8020.41;4995934;28;45383;-76
2022/08/23 01:45:54;;;;;;;;;1.00;1.00;;;;;27.51;50.65;-8020.38;4995265;28;46374;-76
2022/08/23 01:48:21;;;;;;;;;1.33;1.33;;;;;27.54;50.81;-6997.59;4995599;28;45429;-76
2022/08/23 01:50:46;;;;;;;;;1.00;1.00;;;;;27.55;50.81;-8020.63;4995568;28;45388;-76
2022/08/23 01:53:13;;;;;;;;;1.67;1.67;;;;;27.60;51.02;-8020.97;4995885;28;45468;-76
2022/08/23 01:55:41;;;;;;;;;0.00;0.00;;;;;27.64;50.76;-7680.22;4995209;28;46651;-76
2022/08/23 01:58:06;;;;;;;;;0.25;0.25;;;;;27.52;50.49;-6997.50;4994847;28;45523;-76
2022/08/23 02:00:36;;;;;;;;;0.67;0.67;;;;;27.58;50.94;-7338.88;4995355;28;45592;-77
2022/08/23 02:03:03;;;;;;;;;1.00;1.00;;;;;27.48;50.45;-6997.25;4995671;28;45397;-76
2022/08/23 02:05:29;;;;;;;;;0.00;0.00;;;;;27.55;50.98;-6997.66;4995183;28;46495;-76
2022/08/23 02:07:55;;;;;;;;;0.75;0.00;;;;;27.51;50.70;-7679.38;4995347;28;45520;-76
2022/08/23 02:10:21;;;;;;;;;0.00;0.00;;;;;27.54;50.69;-6997.56;4995294;28;45502;-76
2022/08/23 02:12:49;;;;;;;;;1.00;1.00;;;;;27.45;51.10;-7338.09;4995368;28;45460;-76
2022/08/23 02:15:16;;;;;;;;;0.67;0.67;;;;;27.51;51.05;-7679.38;4994965;28;45393;-76
2022/08/23 02:17:43;;;;;;;;;0.00;0.00;;;;;27.44;50.79;-7338.00;4995511;28;45413;-76
2022/08/23 02:20:09;;;;;;;;;0.75;0.75;;;;;27.58;51.13;-7338.88;4995228;28;45502;-76
2022/08/23 02:22:36;;;;;;;;;0.00;0.00;;;;;27.60;50.68;-7338.97;4995148;28;45544;-76
2022/08/23 02:25:01;;;;;;;;;0.25;0.25;;;;;27.55;50.87;-6997.66;4994546;27;46425;-76
2022/08/23 02:27:27;;;;;;;;;0.00;0.00;;;;;27.54;50.86;-7338.59;4995110;28;45597;-76
2022/08/23 02:29:52;;;;;;;;;0.00;0.00;;;;;27.63;50.81;-6998.06;4995349;28;45394;-76
2022/08/23 02:32:18;;;;;;;;;0.00;0.00;;;;;27.63;50.47;-6315.81;4995673;28;45525;-76
2022/08/23 02:34:45;;;;;;;;;1.00;1.00;;;;;27.66;50.34;-6315.94;4995019;28;45479;-76
2022/08/23 02:37:12;;;;;;;;;2.00;1.00;;;;;27.71;50.31;-6316.19;4994445;28;45493;-76
2022/08/23 02:39:38;;;;;;;;;0.50;0.50;;;;;27.74;50.80;-6316.31;4994952;28;45397;-76
2022/08/23 02:42:05;;;;;;;;;0.00;0.00;;;;;27.65;50.38;-5974.75;4995234;28;45471;-76
2022/08/23 02:44:33;;;;;;;;;1.75;0.00;;;;;27.67;50.35;-6316.03;4994746;28;45738;-76
2022/08/23 02:47:00;;;;;;;;;0.00;0.00;;;;;27.64;50.59;-6998.13;4994775;28;45498;-76
2022/08/23 02:49:25;;;;;;;;;0.00;0.00;;;;;27.65;50.69;-6315.91;4994686;28;45444;-76
2022/08/23 02:51:50;;;;;;;;;0.00;0.00;;;;;27.76;50.71;-6316.41;4994845;28;45424;-76
2022/08/23 02:54:16;;;;;;;;;0.25;0.25;;;;;27.81;50.11;-5975.34;4994743;28;47313;-76
2022/08/23 02:56:41;;;;;;;;;0.25;0.25;;;;;27.85;50.48;-5292.84;4994679;28;45367;-76
2022/08/23 02:59:07;;;;;;;;;0.00;0.00;;;;;27.86;50.45;-4951.50;4994802;28;45847;-76
2022/08/23 03:01:36;;;;;;;;;0.00;0.00;;;;;27.91;49.70;-4610.19;4994836;28;45420;-76
2022/08/23 03:04:02;;;;;;;;;1.00;1.00;;;;;27.89;50.17;-4610.16;4994495;28;45498;-76
2022/08/23 03:06:28;;;;;;;;;0.00;0.00;;;;;27.79;50.40;-4951.38;4994509;28;45650;-76
2022/08/23 03:08:55;;;;;;;;;0.00;0.00;;;;;27.81;49.81;-4951.41;4993562;28;45433;-76
2022/08/23 03:11:22;;;;;;;;;0.00;0.00;;;;;27.80;50.74;-5634.03;4995022;28;45427;-76
2022/08/23 03:13:49;;;;;;;;;0.00;0.00;;;;;27.82;50.66;-5634.09;4994565;28;45419;-76
2022/08/23 03:16:15;;;;;;;;;0.50;0.00;;;;;27.87;50.10;-5292.91;4994598;28;45444;-76
2022/08/23 03:18:41;;;;;;;;;0.00;0.00;;;;;27.81;50.56;-5292.75;4994528;28;45479;-76
2022/08/23 03:21:08;;;;;;;;;0.00;0.00;;;;;27.82;50.38;-5634.09;4994529;28;45475;-76
2022/08/23 03:23:35;;;;;;;;;0.00;0.00;;;;;27.76;50.12;-5633.91;4994025;28;45547;-76
2022/08/23 03:26:02;;;;;;;;;0.00;0.00;;;;;27.73;50.92;-6316.28;4994169;27;45737;-76
2022/08/23 03:28:29;;;;;;;;;0.00;0.00;;;;;27.67;50.69;-6657.19;4994843;28;45418;-76
2022/08/23 03:30:55;;;;;;;;;0.75;0.75;;;;;27.68;51.14;-6998.34;4994642;28;45487;-76
2022/08/23 03:33:21;;;;;;;;;2.00;1.00;;;;;27.61;51.40;-7680.03;4976410;28;46867;-76
2022/08/23 03:35:46;;;;;;;;;0.00;0.00;;;;;27.61;51.21;-8021.06;4993617;28;45509;-76
2022/08/23 03:38:13;;;;;;;;;1.00;0.00;;;;;27.56;50.87;-8020.69;4994212;28;45397;-76
2022/08/23 03:40:40;;;;;;;;;1.00;0.25;;;;;27.42;51.05;-9042.19;4994617;28;45639;-75
2022/08/23 03:43:05;;;;;;;;;0.00;0.00;;;;;27.48;51.58;-9042.72;4993999;28;46303;-76
2022/08/23 03:45:31;;;;;;;;;0.00;0.00;;;;;27.39;51.65;-10064.09;4993760;28;45469;-76
2022/08/23 03:47:57;;;;;;;;;2.00;0.00;;;;;27.31;51.57;-11085.09;4976638;28;45372;-76
2022/08/23 03:50:22;;;;;;;;;0.00;0.00;;;;;27.26;51.95;-11425.06;4994272;28;45722;-76
2022/08/23 03:52:48;;;;;;;;;0.33;0.33;;;;;27.25;51.81;-11424.94;4993984;28;46039;-76
2022/08/23 03:55:14;;;;;;;;;0.00;0.00;;;;;27.17;52.13;-12445.19;4994155;28;45380;-76
2022/08/23 03:57:40;;;;;;;;;1.00;1.00;;;;;27.17;52.59;-12785.53;4976206;28;45513;-76
2022/08/23 04:00:09;;;;;;;;;1.00;1.00;;;;;27.14;52.23;-13805.88;4994197;28;45429;-76
2022/08/23 04:02:35;;;;;;;;;1.00;1.00;;;;;27.12;52.42;-14485.81;4993727;28;47233;-76
2022/08/23 04:05:00;;;;;;;;;1.00;1.00;;;;;27.07;53.19;-15505.25;4993433;28;45473;-76
2022/08/23 04:07:26;;;;;;;;;2.00;1.00;;;;;27.06;52.85;-15844.97;4993725;28;45524;-76
2022/08/23 04:09:52;;;;;;;;;1.00;1.00;;;;;27.04;52.76;-16524.47;4976364;28;45700;-76
2022/08/23 04:12:17;;;;;;;;;0.25;0.25;;;;;26.92;53.38;-16861.91;4993478;28;46882;-76
2022/08/23 04:14:44;;;;;;;;;1.00;1.00;;;;;26.94;53.76;-17542.06;4976520;28;45508;-76
2022/08/23 04:17:10;;;;;;;;;1.00;1.00;;;;;26.83;53.50;-17539.59;4993920;28;45465;-76
2022/08/23 04:19:36;;;;;;;;;0.75;0.75;;;;;26.87;53.25;-17200.63;4975815;28;45447;-76
2022/08/23 04:22:01;;;;;;;;;1.00;1.00;;;;;26.93;53.51;-17541.84;4993451;28;46362;-76
2022/08/23 04:24:26;;;;;;;;;0.00;0.00;;;;;26.87;53.37;-17540.50;4975596;28;45575;-76
2022/08/23 04:26:52;;;;;;;;;1.00;1.00;;;;;26.88;53.92;-17880.34;4993831;28;45490;-76
2022/08/23 04:29:18;;;;;;;;;0.67;0.33;;;;;26.84;53.67;-18219.09;4993798;28;45544;-76
2022/08/23 04:31:43;;;;;;;;;2.33;1.00;;;;;26.77;54.13;-18557.16;4993321;28;46271;-76
2022/08/23 04:34:09;;;;;;;;;0.00;0.00;;;;;26.79;54.27;-18557.53;4993041;28;45499;-76
2022/08/23 04:36:38;;;;;;;;;1.00;1.00;;;;;26.84;54.05;-18558.84;4993496;28;45408;-76
2022/08/23 04:39:04;;;;;;;;;1.00;1.00;;;;;26.79;53.62;-18557.53;4976035;28;45460;-76
2022/08/23 04:44:14;;;;;;;;;1.67;1.00;;;;;26.68;54.59;-19234.00;4993242;28;45446;-76
2022/08/23 04:46:42;;;;;;;;;1.00;1.00;;;;;26.62;54.34;-19232.63;4993295;28;45488;-76
2022/08/23 04:49:08;;;;;;;;;1.00;1.00;;;;;26.68;54.63;-19573.47;4993373;28;45520;-76
2022/08/23 04:51:34;;;;;;;;;0.00;0.00;;;;;26.66;54.10;-19233.50;4992890;28;46265;-76
2022/08/23 04:54:01;;;;;;;;;0.00;0.00;;;;;26.50;54.36;-19569.09;4993153;28;45639;-76
2022/08/23 04:56:27;;;;;;;;;1.00;1.00;;;;;26.51;54.96;-19569.34;4993141;28;45433;-76
2022/08/23 04:58:53;;;;;;;;;0.00;0.00;;;;;26.51;55.00;-19908.69;4993425;28;45363;-76
2022/08/23 05:01:18;;;;;;;;;1.00;1.00;;;;;26.52;54.53;-19908.81;4992746;28;46272;-76
2022/08/23 05:03:44;;;;;;;;;1.00;1.00;;;;;26.60;54.47;-19910.94;4992738;28;45445;-76
2022/08/23 05:06:09;;;;;;;;;1.00;1.00;;;;;26.55;55.21;-19909.50;4992982;28;46096;-76
2022/08/23 05:08:35;;;;;;;;;1.00;1.00;;;;;26.51;55.27;-19908.69;4993281;28;45444;-76
2022/08/23 05:11:02;;;;;;;;;1.00;1.00;;;;;26.53;55.29;-19909.09;4992875;28;47405;-76
2022/08/23 05:13:28;;;;;;;;;1.00;1.00;;;;;26.43;55.16;-19908.44;4974965;28;46078;-76
2022/08/23 05:15:54;;;;;;;;;2.67;1.00;;;;;26.51;54.94;-19910.56;4993027;28;45335;-76
2022/08/23 05:18:20;;;;;;;;;1.67;1.00;;;;;26.46;55.32;-19909.34;4992827;28;45322;-76
2022/08/23 05:20:45;;;;;;;;;4.00;2.67;;;;;26.47;55.08;-19909.63;4974684;28;46876;-76
2022/08/23 05:23:10;;;;;;;;;2.33;2.00;;;;;26.40;55.50;-19907.63;4975017;28;45344;-76
2022/08/23 05:25:48;;;;;;;;;1.00;1.00;;;;;26.41;55.63;-19907.91;4992282;27;45783;-76
2022/08/23 05:28:15;;;;;;;;;2.00;1.00;;;;;26.42;55.87;-19908.31;4992972;28;45596;-76
2022/08/23 05:30:40;;;;;;;;;2.00;1.00;;;;;26.33;55.30;-19906.06;4992188;28;46261;-76
2022/08/23 05:33:06;;;;;;;;;1.00;1.00;;;;;26.41;55.83;-19907.91;4977263;28;45501;-76
2022/08/23 05:35:31;;;;;;;;;1.00;1.00;;;;;26.49;55.54;-19910.16;4995964;28;45469;-76
2022/08/23 05:38:00;;;;;;;;;0.67;0.67;;;;;26.37;56.25;-19906.84;4996009;28;45523;-76
2022/08/23 05:40:28;;;;;;;;;2.00;2.00;;;;;26.49;55.76;-19910.03;4995645;28;46667;-76
2022/08/23 05:42:54;;;;;;;;;1.00;1.00;;;;;26.47;55.96;-19909.50;4995589;28;45414;-76
2022/08/23 05:45:20;;;;;;;;;2.00;2.00;;;;;26.44;55.97;-19908.69;4977976;28;45406;-76
2022/08/23 05:47:45;;;;;;;;;0.50;0.50;;;;;26.48;56.10;-19909.75;4995568;28;45470;-76
2022/08/23 05:50:11;;;;;;;;;1.50;1.50;;;;;26.56;55.89;-19911.88;4995666;28;46026;-76
2022/08/23 05:52:37;;;;;;;;;1.00;1.00;;;;;26.55;56.79;-19911.63;4995151;28;45450;-76
2022/08/23 05:55:04;;;;;;;;;3.25;1.75;;;;;26.54;56.16;-19911.34;4995671;28;45398;-76
2022/08/23 05:57:29;;;;;;;;;2.50;1.00;;;;;26.63;56.28;-19913.59;4995945;28;45520;-76
2022/08/23 05:59:54;;;;;;;;;1.00;1.00;;;;;26.74;55.64;-19916.50;4995453;28;46019;-76
2022/08/23 06:02:20;;;;;;;;;1.00;1.00;;;;;26.74;55.98;-19916.63;4995257;28;45446;-76
2022/08/23 06:04:45;;;;;;;;;2.50;1.00;;;;;26.81;55.63;-19918.34;4995271;28;45515;-77
2022/08/23 06:07:10;;;;;;;;;1.00;1.00;;;;;26.86;55.81;-19919.53;4992903;28;45538;-79
2022/08/23 06:09:36;;;;;;;;;1.75;1.00;;;;;26.92;55.59;-19921.13;5043679;27;45757;-82
2022/08/23 06:12:02;;;;;;;;;2.00;1.00;;;;;26.99;55.40;-19922.97;5026965;27;45650;-81
2022/08/23 06:14:27;;;;;;;;;2.00;1.00;;;;;26.92;55.46;-19921.25;5002020;28;45354;-81
2022/08/23 06:16:52;;;;;;;;;2.00;2.00;;;;;27.02;56.00;-19923.78;5060436;27;45497;-81
2022/08/23 06:19:18;;;;;;;;;0.25;0.25;;;;;27.03;55.25;-19924.03;5022284;27;45472;-81
2022/08/23 06:21:44;;;;;;;;;1.25;1.25;;;;;27.25;54.99;-19927.72;5018527;27;45694;-81
2022/08/23 06:24:11;;;;;;;;;1.00;1.00;;;;;27.21;55.45;-19926.66;5072515;27;45490;-81
2022/08/23 06:26:39;;;;;;;;;3.00;2.00;;;;;27.30;54.84;-19589.28;5003289;28;45540;-81
2022/08/23 06:29:07;;;;;;;;;2.00;2.00;;;;;27.29;55.00;-19249.09;5067045;27;46587;-74
2022/08/23 06:31:48;;;;;;;;;2.00;2.00;;;;;27.43;54.53;-19252.63;5028117;27;45342;-75
2022/08/23 06:34:23;;;;;;;;;2.67;2.67;;;;;27.41;54.76;-19591.97;5074165;27;45413;-74
2022/08/23 06:36:51;;;;;;;;;2.25;1.50;;;;;27.53;54.98;-19594.94;5025085;27;45613;-74
2022/08/23 06:39:19;;;;;;;;;2.00;2.00;;;;;27.45;54.86;-19253.13;5008204;28;45504;-75
2022/08/23 06:41:47;;;;;;;;;2.00;2.00;;;;;27.44;55.32;-19592.75;5083074;27;45520;-74
2022/08/23 06:44:13;;;;;;;;;2.50;1.00;;;;;27.51;54.84;-19934.47;5013766;28;45500;-74
2022/08/23 06:46:39;;;;;;;;;3.50;3.25;;;;;27.62;54.81;-19597.16;5014844;28;45588;-75
2022/08/23 06:49:06;;;;;;;;;2.00;2.00;;;;;27.65;54.88;-19937.88;5029853;28;47109;-75
2022/08/23 06:51:37;;;;;;;;;2.00;2.00;;;;;27.76;55.03;-19600.78;5014421;28;45822;-75
2022/08/23 06:54:07;;;;;;;;;0.50;0.50;;;;;27.84;54.68;-19602.84;5014534;28;45461;-75
2022/08/23 06:56:34;;;;;;;;;2.00;2.00;;;;;27.94;54.21;-19265.28;5014818;28;45379;-75
2022/08/23 06:59:02;;;;;;;;;4.00;4.00;;;;;28.00;54.49;-19266.66;5014126;28;46214;-75
2022/08/23 07:01:53;;;;;;;;;2.00;2.00;;;;;28.02;54.99;-19947.53;5014183;28;45428;-75
2022/08/23 07:04:23;;;;;;;;;1.75;1.75;;;;;28.09;54.83;-19268.94;5014235;28;45347;-75
2022/08/23 07:06:48;;;;;;;;;2.50;1.50;;;;;28.15;53.70;-18589.72;5014702;28;45381;-75
2022/08/23 07:09:14;;;;;;;;;2.75;2.50;;;;;28.21;54.14;-18591.19;5014049;28;46116;-75
2022/08/23 07:11:41;;;;;;;;;4.25;2.00;;;;;28.28;54.33;-18592.88;5014357;28;45459;-76
2022/08/23 07:14:10;;;;;;;;;1.00;1.00;;;;;28.30;54.37;-19614.34;5013831;28;45412;-76
2022/08/23 07:16:42;;;;;;;;;2.00;2.00;;;;;28.42;53.28;-17574.69;4997035;28;45485;-75
2022/08/23 07:19:07;;;;;;;;;2.50;2.50;;;;;28.50;52.70;-16895.09;4996180;28;46733;-75
2022/08/23 07:21:33;;;;;;;;;1.50;1.50;;;;;28.62;53.52;-17578.97;5014171;28;45523;-75
2022/08/23 07:23:59;;;;;;;;;1.75;1.00;;;;;28.69;52.93;-16898.94;5022922;28;45504;-76
2022/08/23 07:26:24;;;;;;;;;2.00;1.00;;;;;28.70;53.34;-17239.91;4975011;28;45467;-76
2022/08/23 07:28:50;;;;;;;;;2.25;2.25;;;;;28.86;52.89;-16220.78;4973155;28;47731;-76
2022/08/23 07:31:30;;;;;;;;;0.75;0.75;;;;;28.87;52.50;-15880.06;4973116;28;45953;-75
2022/08/23 07:33:58;;;;;;;;;2.00;2.00;;;;;28.97;52.91;-16563.91;4973636;27;45448;-76
2022/08/23 07:36:25;;;;;;;;;2.00;2.00;;;;;29.06;52.47;-16565.78;4974971;28;45463;-76
2022/08/23 07:38:52;;;;;;;;;3.67;3.67;;;;;29.10;52.85;-16566.59;4974260;28;45474;-76
2022/08/23 07:41:18;;;;;;;;;2.00;2.00;;;;;29.15;52.90;-16567.53;4974384;28;45408;-76
2022/08/23 07:43:43;;;;;;;;;1.75;1.75;;;;;29.15;52.74;-16226.59;4974421;28;45441;-76
2022/08/23 07:46:10;;;;;;;;;1.00;1.00;;;;;29.20;52.45;-15886.47;4973310;28;45507;-76
2022/08/23 07:48:36;;;;;;;;;1.00;1.00;;;;;29.25;52.18;-15204.97;4974293;28;46453;-76
2022/08/23 07:51:08;;;;;;;;;2.50;2.00;;;;;29.35;52.53;-16230.53;4974214;28;45410;-76
2022/08/23 07:53:35;;;;;;;;;1.50;0.75;;;;;29.48;52.46;-16574.22;4974474;28;45429;-76
2022/08/23 07:56:05;;;;;;;;;2.00;2.00;;;;;29.54;51.97;-15551.66;4973685;28;45393;-76
2022/08/23 07:58:31;;;;;;;;;2.00;2.00;;;;;29.58;51.76;-15211.03;4974087;28;46193;-76
2022/08/23 08:00:56;;;;;;;;;2.00;2.00;;;;;29.67;52.07;-15212.63;4974243;28;45460;-76
2022/08/23 08:03:21;;;;;;;;;2.00;2.00;;;;;29.61;52.00;-15552.91;4974259;28;45526;-76
2022/08/23 08:05:47;;;;;;;;;3.50;2.00;;;;;29.77;51.94;-15214.41;4974467;28;45536;-76
2022/08/23 08:08:12;;;;;;;;;3.00;1.75;;;;;29.88;52.19;-15558.09;4974168;28;45551;-76
2022/08/23 08:10:40;;;;;;;;;2.00;2.00;;;;;29.92;52.21;-15217.19;4972616;28;45480;-76
2022/08/23 08:13:06;;;;;;;;;2.00;2.00;;;;;29.86;51.61;-14191.38;4974248;28;45428;-76
2022/08/23 08:15:32;;;;;;;;;1.00;1.00;;;;;29.85;51.73;-14191.09;4974454;28;45403;-76
2022/08/23 08:17:58;;;;;;;;;1.00;1.00;;;;;29.98;51.36;-14193.31;4973972;28;46045;-76
2022/08/23 08:20:24;;;;;;;;;2.00;2.00;;;;;30.05;51.82;-14536.25;4973928;28;45446;-76
2022/08/23 08:22:49;;;;;;;;;3.75;3.00;;;;;30.16;51.65;-14538.00;4974151;28;45452;-76
2022/08/23 08:25:15;;;;;;;;;2.50;2.25;;;;;30.23;51.46;-14197.47;4988382;28;45484;-77
2022/08/23 08:27:41;;;;;;;;;2.00;2.00;;;;;30.21;51.03;-13855.28;4993373;28;46559;-76
2022/08/23 08:30:09;;;;;;;;;1.75;1.75;;;;;30.25;51.32;-14197.81;4993301;28;45587;-76
2022/08/23 08:32:35;;;;;;;;;2.25;2.00;;;;;30.31;51.07;-13514.84;4993585;28;45596;-76
2022/08/23 08:35:01;;;;;;;;;2.00;2.00;;;;;30.41;50.74;-13174.50;4992968;28;45460;-77
2022/08/23 08:37:26;;;;;;;;;2.00;2.00;;;;;30.49;50.50;-12491.50;4992852;28;45418;-77
2022/08/23 08:39:53;;;;;;;;;4.25;3.00;;;;;30.57;50.30;-12150.38;4993053;28;45334;-76
2022/08/23 08:42:30;;;;;;;;;2.75;2.75;;;;;30.50;50.44;-12491.66;4993583;28;45367;-76
2022/08/23 08:44:59;;;;;;;;;1.50;1.50;;;;;30.51;50.51;-12149.56;4993606;28;45382;-76
2022/08/23 08:47:42;;;;;;;;;1.00;1.00;;;;;30.54;50.87;-12834.22;4993119;28;45409;-76
2022/08/23 08:50:25;;;;;;;;;0.75;0.75;;;;;30.57;50.57;-12150.38;4992990;28;45436;-76
2022/08/23 08:52:56;;;;;;;;;2.00;2.00;;;;;30.60;50.20;-12150.72;4993479;28;45500;-76
2022/08/23 08:55:31;;;;;;;;;2.00;2.00;;;;;30.59;50.52;-12150.59;4975806;28;45463;-76
2022/08/23 08:57:56;;;;;;;;;0.25;0.25;;;;;30.66;49.80;-11466.97;4992811;28;46294;-76
2022/08/23 09:00:30;;;;;;;;;1.25;1.25;;;;;30.60;50.22;-11466.22;4975527;28;45452;-76
2022/08/23 09:02:58;;;;;;;;;1.00;1.00;;;;;30.55;50.03;-11123.38;4993168;28;45429;-76
2022/08/23 09:05:30;;;;;;;;;2.00;2.00;;;;;30.71;49.71;-11125.28;4993255;28;45363;-75
2022/08/23 09:07:58;;;;;;;;;3.25;2.50;;;;;30.77;49.74;-11125.97;4994785;28;47252;-76
2022/08/23 09:10:49;;;;;;;;;1.75;1.75;;;;;31.10;48.80;-10444.63;4995852;28;45402;-76
2022/08/23 09:13:30;;;;;;;;;2.00;2.00;;;;;31.31;48.95;-10446.81;4996110;28;45403;-76
2022/08/23 09:16:19;;;;;;;;;2.00;2.00;;;;;31.07;48.82;-9416.22;4996423;28;45427;-76
2022/08/23 09:18:45;;;;;;;;;1.75;1.75;;;;;31.13;48.51;-9416.81;4995467;28;47300;-76
2022/08/23 09:21:14;;;;;;;;;2.00;2.00;;;;;31.16;48.77;-9417.06;4978195;28;45458;-76
2022/08/23 09:23:43;;;;;;;;;2.00;2.00;;;;;31.13;48.81;-9074.00;4995600;28;45439;-76
2022/08/23 09:26:29;;;;;;;;;2.00;2.00;;;;;31.20;48.62;-8731.75;4996034;28;45493;-76
2022/08/23 09:29:03;;;;;;;;;3.00;1.67;;;;;31.12;48.90;-9073.91;4995608;28;46306;-76
2022/08/23 09:31:46;;;;;;;;;2.00;2.00;;;;;31.08;48.87;-8730.81;4995708;28;45587;-76
2022/08/23 09:34:17;;;;;;;;;2.00;2.00;;;;;31.10;48.45;-8388.16;4995763;28;45437;-77
2022/08/23 09:36:43;;;;;;;;;2.67;2.67;;;;;31.10;48.39;-7702.47;4995735;28;45391;-76
2022/08/23 09:39:25;;;;;;;;;1.00;1.00;;;;;31.07;48.66;-8045.09;4995259;28;46911;-76
2022/08/23 09:41:51;;;;;;;;;2.25;1.25;;;;;31.22;48.39;-8046.16;4995543;28;45403;-76
2022/08/23 09:44:42;;;;;;;;;3.25;1.25;;;;;31.46;48.26;-8390.84;4995468;28;45312;-76
2022/08/23 09:47:14;;;;;;;;;3.00;2.00;;;;;31.82;48.03;-8050.22;4996251;28;45535;-76
2022/08/23 09:49:41;;;;;;;;;2.33;2.33;;;;;32.31;46.55;-6679.28;4977871;28;47321;-76
2022/08/23 09:52:31;;;;;;;;;4.00;2.00;;;;;32.63;45.59;-5305.31;4995181;28;45449;-76
2022/08/23 09:55:01;;;;;;;;;1.50;1.00;;;;;32.55;45.71;-4617.28;4977945;28;45413;-76
2022/08/23 09:57:30;;;;;;;;;1.00;1.00;;;;;32.54;45.72;-4617.28;4995869;28;45438;-76
2022/08/23 10:00:02;;;;;;;;;1.00;1.00;;;;;32.70;46.15;-5305.50;4995241;28;45737;-76
2022/08/23 10:02:31;;;;;;;;;1.75;1.75;;;;;33.24;44.62;-4618.25;4995344;28;45507;-77
2022/08/23 10:05:05;;;;;;;;;1.75;1.75;;;;;33.91;43.94;-3585.00;4995468;28;45421;-76
2022/08/23 10:07:53;;;;;;;;;1.25;1.25;;;;;34.78;42.00;-2894.22;4977539;28;45603;-76
2022/08/23 10:10:29;;;;;;;;;1.50;1.50;;;;;35.36;41.41;-819.13;4995016;28;46640;-77
2022/08/23 10:12:56;;;;;;;;;1.25;1.00;;;;;36.06;40.10;569.09;4977764;28;45429;-77
2022/08/23 10:16:00;;;;;;;;;2.00;2.00;;;;;36.54;38.87;2652.41;4995237;28;45424;-76
2022/08/23 10:18:51;;;;;;;;;1.00;1.00;;;;;36.06;39.67;4380.31;4977678;28;45679;-76
2022/08/23 10:21:22;;;;;;;;;1.75;1.75;;;;;36.92;38.39;3350.22;4994689;28;47264;-76
2022/08/23 10:24:00;;;;;;;;;1.00;1.00;;;;;37.66;37.72;3358.47;4994978;28;45531;-76
2022/08/23 10:26:30;;;;;;;;;1.00;1.00;;;;;38.28;37.36;4408.91;4995116;28;45546;-77
2022/08/23 10:32:16;;;;;;;;;1.00;1.00;;;;;39.22;35.05;7557.66;4994831;28;45520;-77
2022/08/23 10:35:03;;;;;;;;;2.00;2.00;;;;;39.57;34.56;9308.47;4995009;28;45516;-77
2022/08/23 10:37:41;;;;;;;;;0.25;0.25;;;;;39.45;33.88;11400.19;4994260;28;45375;-77
2022/08/23 10:40:24;;;;;;;;;1.00;1.00;;;;;39.52;34.13;11401.66;4995224;28;45445;-77
2022/08/23 10:43:13;;;;;;;;;1.75;1.50;;;;;39.87;34.18;11759.44;4994803;28;46320;-77
2022/08/23 10:45:42;;;;;;;;;1.75;1.75;;;;;39.94;32.67;14907.03;4994665;28;45428;-76
2022/08/23 10:48:28;;;;;;;;;1.75;0.50;;;;;40.01;32.95;14909.28;4994863;28;45408;-77
2022/08/23 10:51:08;;;;;;;;;3.00;1.75;;;;;40.10;32.76;14562.09;4977088;28;45462;-76
2022/08/23 10:53:55;;;;;;;;;3.00;2.00;;;;;39.65;33.18;18395.75;4994459;28;45536;-77
2022/08/23 10:56:22;;;;;;;;;1.00;1.00;;;;;39.40;33.28;18736.59;4994453;28;45472;-77
2022/08/23 10:59:13;;;;;;;;;1.00;1.00;;;;;39.51;33.32;19090.22;4994797;28;45460;-77
2022/08/23 11:01:57;;;;;;;;;2.00;2.00;;;;;39.69;33.41;18397.00;4999229;28;45575;-76
2022/08/23 11:04:37;;;;;;;;;0.00;0.00;;;;;39.82;33.29;18401.66;4994525;28;46234;-77
2022/08/23 11:07:36;;;;;;;;;0.00;0.00;;;;;39.47;33.67;19438.75;4994450;28;45536;-77
2022/08/23 11:10:04;;;;;;;;;1.25;1.25;;;;;39.67;32.85;20146.03;5034725;28;45554;-76
2022/08/23 11:12:33;;;;;;;;;1.25;0.75;;;;;39.27;32.68;22930.47;5035111;28;45847;-77
2022/08/23 11:15:06;;;;;;;;;0.75;0.75;;;;;38.77;33.68;24658.75;5034574;28;46298;-77
2022/08/23 11:17:50;;;;;;;;;0.25;0.25;;;;;38.12;34.17;26378.06;5034527;28;45452;-77
2022/08/23 11:20:50;;;;;;;;;0.00;0.00;;;;;37.47;35.34;28130.13;5034329;28;45493;-77
2022/08/23 11:23:36;;;;;;;;;0.00;0.00;;;;;36.91;35.60;28787.09;5034904;28;46039;-77
2022/08/23 11:26:04;;;;;;;;;0.00;0.00;;;;;36.31;36.61;29820.16;5034327;28;45542;-76
2022/08/23 11:28:38;;;;;;;;;1.00;1.00;;;;;36.13;36.24;29543.56;5017723;28;45412;-77
2022/08/23 11:31:07;;;;;;;;;2.00;2.00;;;;;36.10;37.00;28855.06;5033665;28;45463;-77
2022/08/23 11:33:40;;;;;;;;;0.00;0.00;;;;;35.82;36.45;32048.44;5034350;28;45847;-77
2022/08/23 11:36:08;;;;;;;;;0.50;0.50;;;;;35.93;36.91;28303.94;5034218;28;46107;-76
2022/08/23 11:38:45;;;;;;;;;1.00;1.00;;;;;36.54;36.43;25954.72;5034337;28;45509;-77
2022/08/23 11:41:54;;;;;;;;;0.25;0.25;;;;;37.22;35.67;24240.81;5034468;28;45767;-77
2022/08/23 11:44:36;;;;;;;;;1.00;1.00;;;;;38.01;34.66;23576.78;5034606;28;45418;-77
2022/08/23 11:47:06;;;;;;;;;0.50;0.50;;;;;38.75;33.58;22908.59;4974270;28;47425;-77
2022/08/23 11:50:02;;;;;;;;;1.00;1.00;;;;;39.26;32.92;22580.22;4974337;28;45352;-76
2022/08/23 11:52:46;;;;;;;;;0.75;0.75;;;;;39.63;32.97;22245.25;4974573;28;45438;-77
2022/08/23 11:55:20;;;;;;;;;1.00;1.00;;;;;39.91;31.88;22957.28;4974759;28;45415;-76